Kinshasa, Democratic Republic of Congo

1:11 PM WAT on September 02, 2014 (GMT +0100)
Gombe, Ave. Nations Unies | Change Station
CLOSE
Current Station
Personal Weather Station
Location: Kinshasa, KINSHASA
Elevation: 919 ft
Nearby Weather Stations

Elev 919 ft 4.31 °S, 15.27 °E | Updated 26 seconds ago

Scattered Clouds
Scattered Clouds
86.3 °F
Feels Like 90 °F
N
2.1
Wind Variable Wind from WNW
Gusts 8.0 mph

Today
High -- | Low -- °F
--% Chance of Precip.
Yesterday
High -- | Low -- °F
Precip. -- in
5:57 AM 5:58 PM
Waxing Crescent, 51% visible
Pressure 29.98 in
Visibility 6.2 miles
Clouds Scattered Clouds 2000 ft
Heat Index 90 °F
Dew Point 69 °F
Humidity 56%
Rainfall 0.00 in
Snow Depth Not available.
UV 10 out of 12
Pollen Not available.
Air Quality Not available.
Flu Activity Not available.
METAR FCBB 021100Z 26008KT 220V340 9999 SCT020 28/19 Q1015 NOSIG

More Conditions Fewer Conditions

Pressure 29.98 in
Visibility 6.2 miles
Clouds Scattered Clouds 2000 ft
Heat Index 90 °F
Dew Point 69 °F
Humidity 56%
Rainfall 0.00 in
Snow Depth Not available.
UV 10 out of 12
Pollen Not available.
Air Quality Not available.
Flu Activity Not available.
METAR FCBB 021100Z 26008KT 220V340 9999 SCT020 28/19 Q1015 NOSIG

More Conditions Fewer Conditions

10-Day Weather Forecast

Almanac

Astronomy

Sep. 02, 2014 Rise Set
Actual Time 5:57 AM WAT 5:58 PM WAT
Civil Twilight 5:36 AM WAT 6:19 PM WAT
Nautical Twilight 5:11 AM WAT 6:44 PM WAT
Astronomical Twilight 4:47 AM WAT 7:08 PM WAT
Moon 11:42 AM WAT No Moon Set
Length of Visible Light 12h 43m
Length of Day
12h 01m
Tomorrow will be 0m 13s longer.
Waxing Crescent, 51% of the Moon is Illuminated
Today
Waxing Crescent
Sep 8
Full
Sep 15
Last Quarter
Sep 24
New
Oct 1
First Quarter

Yesterday's Extremes

Country Highs Country Lows

Community

WunderPhotos

Upload Photos

1,749,638 photos uploaded!

WunderBlogs® & News

By Dr. Jeff Masters
Director of Meteorology, Weather Underground
By Kari Strenfel
Meteorologist, Weather Underground
By Christopher C. Burt
Weather Historian, Weather Underground
September 2, 2014
September 2, 2014
September 2, 2014

Nearby

Snow Depth

Not available.

Earthquake Activity

City Distance Mag. Time & Date
No recent earthquake activity has been reported nearby.
Minimum magnitude displayed is 2.5.

Coastal Water Temperatures

Place Temperature
No Stations Reporting

Nearby Weather Stations